sensor_id;sensor_type;location;lat;lon;timestamp;P1;durP1;ratioP1;P2;durP2;ratioP2
22417;SDS011;11376;50.932;4.442;2024-03-23T00:55:35;12.67;;;3.47;;
22417;SDS011;11376;50.932;4.442;2024-03-23T00:58:01;17.73;;;3.20;;
22417;SDS011;11376;50.932;4.442;2024-03-23T01:00:26;14.63;;;3.50;;
22417;SDS011;11376;50.932;4.442;2024-03-23T01:02:52;13.47;;;3.57;;
22417;SDS011;11376;50.932;4.442;2024-03-23T01:05:18;13.63;;;3.73;;
22417;SDS011;11376;50.932;4.442;2024-03-23T01:07:44;13.17;;;3.60;;
22417;SDS011;11376;50.932;4.442;2024-03-23T01:10:09;12.53;;;3.33;;
22417;SDS011;11376;50.932;4.442;2024-03-23T01:12:35;10.17;;;2.80;;
22417;SDS011;11376;50.932;4.442;2024-03-23T01:15:01;12.60;;;3.43;;
22417;SDS011;11376;50.932;4.442;2024-03-23T01:17:27;11.83;;;3.10;;
22417;SDS011;11376;50.932;4.442;2024-03-23T01:19:53;16.07;;;3.63;;
22417;SDS011;11376;50.932;4.442;2024-03-23T01:22:18;15.57;;;3.70;;
22417;SDS011;11376;50.932;4.442;2024-03-23T01:24:44;10.97;;;3.23;;
22417;SDS011;11376;50.932;4.442;2024-03-23T01:27:10;13.13;;;3.10;;
22417;SDS011;11376;50.932;4.442;2024-03-23T01:29:36;14.17;;;3.10;;
22417;SDS011;11376;50.932;4.442;2024-03-23T01:32:01;13.40;;;3.27;;
22417;SDS011;11376;50.932;4.442;2024-03-23T01:34:27;9.03;;;2.37;;
22417;SDS011;11376;50.932;4.442;2024-03-23T01:36:53;8.90;;;2.60;;
22417;SDS011;11376;50.932;4.442;2024-03-23T01:39:19;11.03;;;2.87;;
22417;SDS011;11376;50.932;4.442;2024-03-23T01:41:44;9.90;;;2.33;;
22417;SDS011;11376;50.932;4.442;2024-03-23T01:44:10;10.23;;;2.47;;
22417;SDS011;11376;50.932;4.442;2024-03-23T01:46:36;15.93;;;2.90;;
22417;SDS011;11376;50.932;4.442;2024-03-23T01:49:03;9.63;;;2.63;;
22417;SDS011;11376;50.932;4.442;2024-03-23T01:51:32;13.67;;;2.97;;
22417;SDS011;11376;50.932;4.442;2024-03-23T01:53:59;12.53;;;3.10;;
22417;SDS011;11376;50.932;4.442;2024-03-23T01:56:28;9.57;;;2.33;;
22417;SDS011;11376;50.932;4.442;2024-03-23T01:59:04;9.23;;;3.33;;
22417;SDS011;11376;50.932;4.442;2024-03-23T02:01:30;11.73;;;3.97;;
22417;SDS011;11376;50.932;4.442;2024-03-23T02:03:57;14.67;;;4.30;;
22417;SDS011;11376;50.932;4.442;2024-03-23T02:06:26;12.90;;;4.33;;
22417;SDS011;11376;50.932;4.442;2024-03-23T02:08:52;15.53;;;4.60;;
22417;SDS011;11376;50.932;4.442;2024-03-23T02:11:18;15.00;;;5.47;;
22417;SDS011;11376;50.932;4.442;2024-03-23T02:13:44;16.40;;;5.27;;
22417;SDS011;11376;50.932;4.442;2024-03-23T02:16:10;19.10;;;5.60;;
22417;SDS011;11376;50.932;4.442;2024-03-23T02:18:36;14.17;;;4.33;;
22417;SDS011;11376;50.932;4.442;2024-03-23T02:21:02;18.63;;;5.70;;
22417;SDS011;11376;50.932;4.442;2024-03-23T02:23:28;16.83;;;5.60;;
22417;SDS011;11376;50.932;4.442;2024-03-23T02:25:54;19.57;;;6.17;;
22417;SDS011;11376;50.932;4.442;2024-03-23T02:28:19;19.97;;;5.87;;
22417;SDS011;11376;50.932;4.442;2024-03-23T02:30:47;14.13;;;5.40;;
22417;SDS011;11376;50.932;4.442;2024-03-23T02:33:16;18.67;;;5.27;;
22417;SDS011;11376;50.932;4.442;2024-03-23T02:35:43;19.73;;;5.70;;
22417;SDS011;11376;50.932;4.442;2024-03-23T02:38:09;18.60;;;5.87;;
22417;SDS011;11376;50.932;4.442;2024-03-23T02:40:34;20.10;;;5.10;;
22417;SDS011;11376;50.932;4.442;2024-03-23T02:43:02;21.00;;;6.17;;
22417;SDS011;11376;50.932;4.442;2024-03-23T02:45:28;21.77;;;6.07;;
22417;SDS011;11376;50.932;4.442;2024-03-23T02:47:54;17.83;;;5.33;;
22417;SDS011;11376;50.932;4.442;2024-03-23T02:50:20;23.60;;;5.90;;
22417;SDS011;11376;50.932;4.442;2024-03-23T02:52:46;19.27;;;5.33;;
22417;SDS011;11376;50.932;4.442;2024-03-23T02:55:12;27.63;;;5.67;;
22417;SDS011;11376;50.932;4.442;2024-03-23T02:57:38;19.83;;;5.57;;
22417;SDS011;11376;50.932;4.442;2024-03-23T03:00:04;20.47;;;6.20;;
22417;SDS011;11376;50.932;4.442;2024-03-23T03:02:32;20.37;;;6.37;;
22417;SDS011;11376;50.932;4.442;2024-03-23T03:04:58;21.20;;;5.97;;
22417;SDS011;11376;50.932;4.442;2024-03-23T03:07:24;28.73;;;5.93;;
22417;SDS011;11376;50.932;4.442;2024-03-23T03:09:49;19.60;;;5.53;;
22417;SDS011;11376;50.932;4.442;2024-03-23T03:12:15;25.17;;;5.60;;
22417;SDS011;11376;50.932;4.442;2024-03-23T03:14:41;21.40;;;5.60;;
22417;SDS011;11376;50.932;4.442;2024-03-23T03:17:07;21.50;;;5.40;;
22417;SDS011;11376;50.932;4.442;2024-03-23T03:19:33;19.87;;;4.80;;
22417;SDS011;11376;50.932;4.442;2024-03-23T03:21:59;21.47;;;5.20;;
22417;SDS011;11376;50.932;4.442;2024-03-23T03:24:24;21.77;;;5.30;;
22417;SDS011;11376;50.932;4.442;2024-03-23T03:26:50;17.67;;;4.83;;
22417;SDS011;11376;50.932;4.442;2024-03-23T03:29:16;24.70;;;5.30;;
22417;SDS011;11376;50.932;4.442;2024-03-23T03:31:42;18.23;;;4.77;;
22417;SDS011;11376;50.932;4.442;2024-03-23T03:34:08;17.63;;;4.50;;
22417;SDS011;11376;50.932;4.442;2024-03-23T03:36:34;19.67;;;5.03;;
22417;SDS011;11376;50.932;4.442;2024-03-23T03:38:59;18.17;;;4.37;;
22417;SDS011;11376;50.932;4.442;2024-03-23T03:41:27;21.00;;;5.00;;
22417;SDS011;11376;50.932;4.442;2024-03-23T03:43:53;19.33;;;4.73;;
22417;SDS011;11376;50.932;4.442;2024-03-23T03:46:20;15.17;;;4.57;;
22417;SDS011;11376;50.932;4.442;2024-03-23T03:48:46;19.87;;;4.70;;
22417;SDS011;11376;50.932;4.442;2024-03-23T03:51:13;19.70;;;4.53;;
22417;SDS011;11376;50.932;4.442;2024-03-23T03:53:39;18.03;;;4.50;;
22417;SDS011;11376;50.932;4.442;2024-03-23T03:56:04;16.50;;;3.60;;
22417;SDS011;11376;50.932;4.442;2024-03-23T03:58:30;20.60;;;4.07;;
22417;SDS011;11376;50.932;4.442;2024-03-23T04:00:56;13.20;;;3.53;;
22417;SDS011;11376;50.932;4.442;2024-03-23T04:03:22;19.93;;;4.17;;
22417;SDS011;11376;50.932;4.442;2024-03-23T04:05:51;16.47;;;4.10;;
22417;SDS011;11376;50.932;4.442;2024-03-23T04:08:20;15.90;;;3.93;;
22417;SDS011;11376;50.932;4.442;2024-03-23T04:10:46;21.00;;;4.20;;
22417;SDS011;11376;50.932;4.442;2024-03-23T04:13:12;13.93;;;3.83;;
22417;SDS011;11376;50.932;4.442;2024-03-23T04:15:38;18.00;;;4.03;;
22417;SDS011;11376;50.932;4.442;2024-03-23T04:18:04;14.50;;;4.70;;
22417;SDS011;11376;50.932;4.442;2024-03-23T04:20:30;20.20;;;4.90;;
22417;SDS011;11376;50.932;4.442;2024-03-23T04:22:57;19.13;;;5.07;;
22417;SDS011;11376;50.932;4.442;2024-03-23T04:25:23;17.60;;;4.77;;
22417;SDS011;11376;50.932;4.442;2024-03-23T04:27:49;21.93;;;5.43;;
22417;SDS011;11376;50.932;4.442;2024-03-23T04:30:15;20.80;;;5.53;;
22417;SDS011;11376;50.932;4.442;2024-03-23T04:32:41;18.83;;;5.20;;
22417;SDS011;11376;50.932;4.442;2024-03-23T04:35:07;21.17;;;5.40;;
22417;SDS011;11376;50.932;4.442;2024-03-23T04:37:36;19.60;;;5.40;;
22417;SDS011;11376;50.932;4.442;2024-03-23T04:40:03;21.47;;;5.57;;
22417;SDS011;11376;50.932;4.442;2024-03-23T04:42:29;14.93;;;4.83;;
22417;SDS011;11376;50.932;4.442;2024-03-23T04:44:55;19.33;;;5.67;;
22417;SDS011;11376;50.932;4.442;2024-03-23T04:47:21;13.77;;;4.73;;
22417;SDS011;11376;50.932;4.442;2024-03-23T04:49:47;23.60;;;5.00;;
22417;SDS011;11376;50.932;4.442;2024-03-23T04:52:13;22.63;;;4.53;;
22417;SDS011;11376;50.932;4.442;2024-03-23T04:54:40;19.20;;;4.83;;
22417;SDS011;11376;50.932;4.442;2024-03-23T04:57:06;17.83;;;4.00;;
22417;SDS011;11376;50.932;4.442;2024-03-23T04:59:32;16.30;;;4.60;;
22417;SDS011;11376;50.932;4.442;2024-03-23T05:01:58;12.87;;;3.60;;
22417;SDS011;11376;50.932;4.442;2024-03-23T05:04:25;21.63;;;3.97;;
22417;SDS011;11376;50.932;4.442;2024-03-23T05:06:51;13.93;;;3.37;;
22417;SDS011;11376;50.932;4.442;2024-03-23T05:09:17;17.90;;;3.27;;
22417;SDS011;11376;50.932;4.442;2024-03-23T05:11:42;15.03;;;3.00;;
22417;SDS011;11376;50.932;4.442;2024-03-23T05:14:08;11.47;;;3.10;;
22417;SDS011;11376;50.932;4.442;2024-03-23T05:16:34;16.00;;;3.47;;
22417;SDS011;11376;50.932;4.442;2024-03-23T05:18:59;13.10;;;3.40;;
22417;SDS011;11376;50.932;4.442;2024-03-23T05:21:26;12.70;;;2.97;;
22417;SDS011;11376;50.932;4.442;2024-03-23T05:23:53;14.10;;;3.47;;
22417;SDS011;11376;50.932;4.442;2024-03-23T05:26:19;13.10;;;3.20;;
22417;SDS011;11376;50.932;4.442;2024-03-23T05:28:45;16.17;;;3.53;;
22417;SDS011;11376;50.932;4.442;2024-03-23T05:31:11;12.57;;;3.50;;
22417;SDS011;11376;50.932;4.442;2024-03-23T05:33:36;17.77;;;3.70;;
22417;SDS011;11376;50.932;4.442;2024-03-23T05:36:05;12.87;;;3.90;;
22417;SDS011;11376;50.932;4.442;2024-03-23T05:38:33;10.80;;;3.73;;
22417;SDS011;11376;50.932;4.442;2024-03-23T05:40:59;11.07;;;3.70;;
22417;SDS011;11376;50.932;4.442;2024-03-23T05:43:26;13.63;;;3.57;;
22417;SDS011;11376;50.932;4.442;2024-03-23T05:45:56;16.30;;;3.93;;
22417;SDS011;11376;50.932;4.442;2024-03-23T05:48:23;13.20;;;4.30;;
22417;SDS011;11376;50.932;4.442;2024-03-23T05:50:53;15.80;;;4.83;;
22417;SDS011;11376;50.932;4.442;2024-03-23T05:53:19;15.50;;;3.77;;
22417;SDS011;11376;50.932;4.442;2024-03-23T05:55:48;16.07;;;4.67;;
22417;SDS011;11376;50.932;4.442;2024-03-23T05:58:15;22.23;;;4.50;;
22417;SDS011;11376;50.932;4.442;2024-03-23T06:00:42;14.10;;;3.80;;
22417;SDS011;11376;50.932;4.442;2024-03-23T06:03:09;11.43;;;2.87;;
22417;SDS011;11376;50.932;4.442;2024-03-23T06:05:36;11.87;;;3.70;;
22417;SDS011;11376;50.932;4.442;2024-03-23T06:08:02;15.00;;;2.80;;
22417;SDS011;11376;50.932;4.442;2024-03-23T06:10:28;15.37;;;3.47;;
22417;SDS011;11376;50.932;4.442;2024-03-23T06:12:54;17.87;;;3.83;;
22417;SDS011;11376;50.932;4.442;2024-03-23T06:15:21;13.67;;;3.70;;
22417;SDS011;11376;50.932;4.442;2024-03-23T06:17:47;12.83;;;3.27;;
22417;SDS011;11376;50.932;4.442;2024-03-23T06:20:13;18.37;;;3.07;;
22417;SDS011;11376;50.932;4.442;2024-03-23T06:22:40;11.67;;;2.33;;
22417;SDS011;11376;50.932;4.442;2024-03-23T06:25:06;14.80;;;2.90;;
22417;SDS011;11376;50.932;4.442;2024-03-23T06:27:32;14.10;;;2.50;;
22417;SDS011;11376;50.932;4.442;2024-03-23T06:29:58;13.43;;;2.40;;
22417;SDS011;11376;50.932;4.442;2024-03-23T06:32:24;13.77;;;2.53;;
22417;SDS011;11376;50.932;4.442;2024-03-23T06:34:50;14.93;;;2.93;;
22417;SDS011;11376;50.932;4.442;2024-03-23T06:37:16;7.27;;;1.80;;
22417;SDS011;11376;50.932;4.442;2024-03-23T06:39:42;9.07;;;2.60;;
22417;SDS011;11376;50.932;4.442;2024-03-23T06:42:07;14.70;;;2.53;;
22417;SDS011;11376;50.932;4.442;2024-03-23T06:44:33;12.83;;;2.13;;
22417;SDS011;11376;50.932;4.442;2024-03-23T06:46:59;16.77;;;2.53;;
22417;SDS011;11376;50.932;4.442;2024-03-23T06:49:25;15.57;;;2.20;;
22417;SDS011;11376;50.932;4.442;2024-03-23T06:51:57;8.40;;;1.93;;
22417;SDS011;11376;50.932;4.442;2024-03-23T06:54:24;12.93;;;1.93;;
22417;SDS011;11376;50.932;4.442;2024-03-23T06:56:49;16.70;;;2.13;;
22417;SDS011;11376;50.932;4.442;2024-03-23T06:59:15;13.33;;;2.47;;
22417;SDS011;11376;50.932;4.442;2024-03-23T07:01:41;7.17;;;1.47;;
22417;SDS011;11376;50.932;4.442;2024-03-23T07:04:07;8.53;;;1.43;;
22417;SDS011;11376;50.932;4.442;2024-03-23T07:06:33;10.93;;;1.53;;
22417;SDS011;11376;50.932;4.442;2024-03-23T07:08:58;11.67;;;1.90;;
22417;SDS011;11376;50.932;4.442;2024-03-23T07:11:24;3.57;;;1.03;;
22417;SDS011;11376;50.932;4.442;2024-03-23T07:13:52;10.10;;;1.97;;
22417;SDS011;11376;50.932;4.442;2024-03-23T07:16:19;10.87;;;2.10;;
22417;SDS011;11376;50.932;4.442;2024-03-23T07:18:45;15.57;;;2.83;;
22417;SDS011;11376;50.932;4.442;2024-03-23T07:21:11;12.77;;;2.17;;
22417;SDS011;11376;50.932;4.442;2024-03-23T07:23:37;9.30;;;1.50;;
22417;SDS011;11376;50.932;4.442;2024-03-23T07:26:04;8.00;;;1.53;;
22417;SDS011;11376;50.932;4.442;2024-03-23T07:28:33;9.57;;;1.43;;
22417;SDS011;11376;50.932;4.442;2024-03-23T07:33:36;6.33;;;1.40;;
22417;SDS011;11376;50.932;4.442;2024-03-23T07:36:03;8.03;;;1.43;;
22417;SDS011;11376;50.932;4.442;2024-03-23T07:38:30;6.17;;;1.30;;
22417;SDS011;11376;50.932;4.442;2024-03-23T07:41:06;4.47;;;0.83;;
22417;SDS011;11376;50.932;4.442;2024-03-23T07:43:33;8.97;;;1.57;;
22417;SDS011;11376;50.932;4.442;2024-03-23T07:46:00;5.10;;;1.27;;
22417;SDS011;11376;50.932;4.442;2024-03-23T07:48:26;8.50;;;2.10;;
22417;SDS011;11376;50.932;4.442;2024-03-23T07:51:16;8.13;;;1.63;;
22417;SDS011;11376;50.932;4.442;2024-03-23T07:53:43;9.93;;;1.50;;
22417;SDS011;11376;50.932;4.442;2024-03-23T07:56:11;14.03;;;2.20;;
22417;SDS011;11376;50.932;4.442;2024-03-23T07:58:37;11.40;;;2.37;;
22417;SDS011;11376;50.932;4.442;2024-03-23T08:01:12;13.17;;;2.47;;
22417;SDS011;11376;50.932;4.442;2024-03-23T08:03:40;7.77;;;1.40;;
22417;SDS011;11376;50.932;4.442;2024-03-23T08:06:16;13.77;;;2.43;;
22417;SDS011;11376;50.932;4.442;2024-03-23T08:08:45;11.43;;;1.33;;
22417;SDS011;11376;50.932;4.442;2024-03-23T08:11:11;15.33;;;2.30;;
22417;SDS011;11376;50.932;4.442;2024-03-23T08:13:41;9.73;;;1.70;;
22417;SDS011;11376;50.932;4.442;2024-03-23T08:16:09;12.67;;;2.17;;
22417;SDS011;11376;50.932;4.442;2024-03-23T08:18:35;13.77;;;1.83;;
22417;SDS011;11376;50.932;4.442;2024-03-23T08:21:02;9.30;;;1.97;;
22417;SDS011;11376;50.932;4.442;2024-03-23T08:23:29;10.70;;;1.70;;
22417;SDS011;11376;50.932;4.442;2024-03-23T08:25:59;11.20;;;2.10;;
22417;SDS011;11376;50.932;4.442;2024-03-23T08:28:25;11.83;;;1.87;;
22417;SDS011;11376;50.932;4.442;2024-03-23T08:30:52;12.00;;;2.00;;
22417;SDS011;11376;50.932;4.442;2024-03-23T08:33:18;11.73;;;2.30;;
22417;SDS011;11376;50.932;4.442;2024-03-23T08:35:52;14.17;;;1.90;;
22417;SDS011;11376;50.932;4.442;2024-03-23T08:38:22;12.40;;;2.03;;
22417;SDS011;11376;50.932;4.442;2024-03-23T08:40:58;13.83;;;2.20;;
22417;SDS011;11376;50.932;4.442;2024-03-23T08:43:27;15.20;;;2.57;;
22417;SDS011;11376;50.932;4.442;2024-03-23T08:46:03;16.87;;;2.77;;
22417;SDS011;11376;50.932;4.442;2024-03-23T08:48:33;7.20;;;1.83;;
22417;SDS011;11376;50.932;4.442;2024-03-23T08:51:03;11.57;;;2.10;;
22417;SDS011;11376;50.932;4.442;2024-03-23T08:53:30;7.10;;;1.33;;
22417;SDS011;11376;50.932;4.442;2024-03-23T08:55:56;8.07;;;1.90;;
22417;SDS011;11376;50.932;4.442;2024-03-23T08:58:23;11.63;;;2.03;;
22417;SDS011;11376;50.932;4.442;2024-03-23T09:00:53;12.00;;;2.03;;
22417;SDS011;11376;50.932;4.442;2024-03-23T09:03:21;8.00;;;1.53;;
22417;SDS011;11376;50.932;4.442;2024-03-23T09:05:51;9.83;;;2.10;;
22417;SDS011;11376;50.932;4.442;2024-03-23T09:08:17;11.47;;;1.80;;
22417;SDS011;11376;50.932;4.442;2024-03-23T09:10:43;9.20;;;1.50;;
22417;SDS011;11376;50.932;4.442;2024-03-23T09:13:09;9.10;;;1.93;;
22417;SDS011;11376;50.932;4.442;2024-03-23T09:15:37;8.83;;;1.93;;
22417;SDS011;11376;50.932;4.442;2024-03-23T09:18:10;6.90;;;1.70;;
22417;SDS011;11376;50.932;4.442;2024-03-23T09:20:36;12.73;;;1.73;;
22417;SDS011;11376;50.932;4.442;2024-03-23T09:23:02;8.80;;;1.47;;
22417;SDS011;11376;50.932;4.442;2024-03-23T09:25:27;6.73;;;1.47;;
22417;SDS011;11376;50.932;4.442;2024-03-23T09:27:53;12.57;;;1.90;;
22417;SDS011;11376;50.932;4.442;2024-03-23T09:30:19;6.17;;;1.20;;
22417;SDS011;11376;50.932;4.442;2024-03-23T09:32:45;8.77;;;1.70;;
22417;SDS011;11376;50.932;4.442;2024-03-23T09:35:11;11.77;;;1.37;;
22417;SDS011;11376;50.932;4.442;2024-03-23T09:37:37;6.77;;;1.47;;
22417;SDS011;11376;50.932;4.442;2024-03-23T09:40:05;13.63;;;1.33;;
22417;SDS011;11376;50.932;4.442;2024-03-23T09:42:40;9.10;;;1.57;;
22417;SDS011;11376;50.932;4.442;2024-03-23T09:45:17;9.80;;;2.20;;
22417;SDS011;11376;50.932;4.442;2024-03-23T09:47:47;7.77;;;1.47;;
22417;SDS011;11376;50.932;4.442;2024-03-23T09:50:13;6.80;;;1.33;;
22417;SDS011;11376;50.932;4.442;2024-03-23T09:52:39;8.27;;;1.90;;
22417;SDS011;11376;50.932;4.442;2024-03-23T09:55:07;11.80;;;1.60;;
22417;SDS011;11376;50.932;4.442;2024-03-23T09:57:33;7.30;;;1.83;;
22417;SDS011;11376;50.932;4.442;2024-03-23T09:59:59;7.73;;;1.70;;
22417;SDS011;11376;50.932;4.442;2024-03-23T10:02:25;7.57;;;1.70;;
22417;SDS011;11376;50.932;4.442;2024-03-23T10:04:51;8.97;;;1.60;;
22417;SDS011;11376;50.932;4.442;2024-03-23T10:07:20;9.80;;;1.87;;
22417;SDS011;11376;50.932;4.442;2024-03-23T10:09:49;7.93;;;1.57;;
22417;SDS011;11376;50.932;4.442;2024-03-23T10:12:18;7.93;;;1.60;;
22417;SDS011;11376;50.932;4.442;2024-03-23T10:14:44;9.30;;;2.07;;
22417;SDS011;11376;50.932;4.442;2024-03-23T10:17:17;6.53;;;1.50;;
22417;SDS011;11376;50.932;4.442;2024-03-23T10:19:48;5.17;;;1.50;;
22417;SDS011;11376;50.932;4.442;2024-03-23T10:22:17;7.93;;;2.20;;
22417;SDS011;11376;50.932;4.442;2024-03-23T10:24:43;9.63;;;1.57;;
22417;SDS011;11376;50.932;4.442;2024-03-23T10:27:09;12.47;;;2.00;;
22417;SDS011;11376;50.932;4.442;2024-03-23T10:29:34;5.83;;;1.37;;
22417;SDS011;11376;50.932;4.442;2024-03-23T10:32:13;10.03;;;1.93;;
22417;SDS011;11376;50.932;4.442;2024-03-23T10:34:40;5.60;;;1.50;;
22417;SDS011;11376;50.932;4.442;2024-03-23T10:37:06;7.00;;;1.77;;
22417;SDS011;11376;50.932;4.442;2024-03-23T10:39:39;6.10;;;1.00;;
22417;SDS011;11376;50.932;4.442;2024-03-23T10:42:06;5.43;;;1.27;;
22417;SDS011;11376;50.932;4.442;2024-03-23T10:44:33;5.77;;;1.40;;
22417;SDS011;11376;50.932;4.442;2024-03-23T10:47:03;5.13;;;1.30;;
22417;SDS011;11376;50.932;4.442;2024-03-23T10:49:30;5.43;;;1.43;;
22417;SDS011;11376;50.932;4.442;2024-03-23T10:52:00;6.53;;;1.20;;
22417;SDS011;11376;50.932;4.442;2024-03-23T10:54:30;5.40;;;1.23;;
22417;SDS011;11376;50.932;4.442;2024-03-23T10:57:05;6.50;;;1.25;;
22417;SDS011;11376;50.932;4.442;2024-03-23T10:59:34;6.30;;;1.58;;
22417;SDS011;11376;50.932;4.442;2024-03-23T11:02:03;8.00;;;1.27;;
22417;SDS011;11376;50.932;4.442;2024-03-23T11:04:36;8.13;;;1.30;;
22417;SDS011;11376;50.932;4.442;2024-03-23T11:09:49;11.40;;;2.10;;
22417;SDS011;11376;50.932;4.442;2024-03-23T11:17:21;6.23;;;1.53;;
22417;SDS011;11376;50.932;4.442;2024-03-23T11:19:55;5.53;;;1.10;;
22417;SDS011;11376;50.932;4.442;2024-03-23T11:22:38;7.00;;;1.17;;
22417;SDS011;11376;50.932;4.442;2024-03-23T11:25:18;7.33;;;1.00;;
22417;SDS011;11376;50.932;4.442;2024-03-23T11:27:45;6.97;;;0.88;;
22417;SDS011;11376;50.932;4.442;2024-03-23T11:30:16;9.25;;;1.15;;
22417;SDS011;11376;50.932;4.442;2024-03-23T11:32:49;1.33;;;0.30;;
22417;SDS011;11376;50.932;4.442;2024-03-23T11:35:36;5.10;;;1.03;;
22417;SDS011;11376;50.932;4.442;2024-03-23T11:40:36;4.87;;;0.87;;
22417;SDS011;11376;50.932;4.442;2024-03-23T11:43:16;4.80;;;0.87;;
22417;SDS011;11376;50.932;4.442;2024-03-23T11:45:43;6.67;;;1.13;;
22417;SDS011;11376;50.932;4.442;2024-03-23T11:48:14;7.17;;;1.47;;
22417;SDS011;11376;50.932;4.442;2024-03-23T11:50:45;3.80;;;0.90;;
22417;SDS011;11376;50.932;4.442;2024-03-23T11:55:49;5.57;;;1.08;;
22417;SDS011;11376;50.932;4.442;2024-03-23T11:58:21;5.50;;;0.97;;
22417;SDS011;11376;50.932;4.442;2024-03-23T12:01:00;7.70;;;1.33;;
22417;SDS011;11376;50.932;4.442;2024-03-23T12:03:28;6.97;;;1.10;;
22417;SDS011;11376;50.932;4.442;2024-03-23T12:05:58;5.57;;;0.70;;
22417;SDS011;11376;50.932;4.442;2024-03-23T12:08:36;5.90;;;1.20;;
22417;SDS011;11376;50.932;4.442;2024-03-23T12:13:35;7.97;;;1.20;;
22417;SDS011;11376;50.932;4.442;2024-03-23T12:16:11;9.23;;;1.20;;
22417;SDS011;11376;50.932;4.442;2024-03-23T12:18:39;3.00;;;0.63;;
22417;SDS011;11376;50.932;4.442;2024-03-23T12:21:08;3.77;;;0.67;;
22417;SDS011;11376;50.932;4.442;2024-03-23T12:23:34;7.40;;;0.90;;
22417;SDS011;11376;50.932;4.442;2024-03-23T12:26:00;2.77;;;0.50;;
22417;SDS011;11376;50.932;4.442;2024-03-23T12:28:26;2.22;;;0.50;;
22417;SDS011;11376;50.932;4.442;2024-03-23T12:30:52;1.48;;;0.38;;
22417;SDS011;11376;50.932;4.442;2024-03-23T12:33:19;3.30;;;0.52;;
22417;SDS011;11376;50.932;4.442;2024-03-23T12:35:45;2.75;;;0.70;;
22417;SDS011;11376;50.932;4.442;2024-03-23T12:38:11;5.00;;;0.50;;
22417;SDS011;11376;50.932;4.442;2024-03-23T12:40:36;3.40;;;0.60;;
22417;SDS011;11376;50.932;4.442;2024-03-23T12:43:02;4.57;;;0.80;;
22417;SDS011;11376;50.932;4.442;2024-03-23T12:45:28;3.67;;;0.50;;
22417;SDS011;11376;50.932;4.442;2024-03-23T12:47:54;6.63;;;1.10;;
22417;SDS011;11376;50.932;4.442;2024-03-23T12:50:20;3.63;;;0.70;;
22417;SDS011;11376;50.932;4.442;2024-03-23T12:52:46;6.63;;;0.90;;
22417;SDS011;11376;50.932;4.442;2024-03-23T12:55:12;5.72;;;0.90;;
22417;SDS011;11376;50.932;4.442;2024-03-23T12:57:38;6.93;;;1.20;;
22417;SDS011;11376;50.932;4.442;2024-03-23T13:00:05;3.22;;;0.65;;
22417;SDS011;11376;50.932;4.442;2024-03-23T13:02:34;4.32;;;0.80;;
22417;SDS011;11376;50.932;4.442;2024-03-23T13:05:00;6.03;;;1.20;;
22417;SDS011;11376;50.932;4.442;2024-03-23T13:07:26;6.93;;;1.40;;
22417;SDS011;11376;50.932;4.442;2024-03-23T13:09:52;4.78;;;0.68;;
22417;SDS011;11376;50.932;4.442;2024-03-23T13:12:18;7.45;;;0.90;;
22417;SDS011;11376;50.932;4.442;2024-03-23T13:14:45;5.22;;;0.73;;
22417;SDS011;11376;50.932;4.442;2024-03-23T13:17:11;5.30;;;0.90;;
22417;SDS011;11376;50.932;4.442;2024-03-23T13:19:37;8.20;;;1.20;;
22417;SDS011;11376;50.932;4.442;2024-03-23T13:22:03;6.53;;;0.93;;
22417;SDS011;11376;50.932;4.442;2024-03-23T13:24:29;3.97;;;0.93;;
22417;SDS011;11376;50.932;4.442;2024-03-23T13:26:56;9.73;;;1.00;;
22417;SDS011;11376;50.932;4.442;2024-03-23T13:29:22;9.57;;;1.10;;
22417;SDS011;11376;50.932;4.442;2024-03-23T13:31:49;6.97;;;1.07;;
22417;SDS011;11376;50.932;4.442;2024-03-23T13:34:16;5.90;;;1.00;;
22417;SDS011;11376;50.932;4.442;2024-03-23T13:36:43;8.57;;;1.00;;
22417;SDS011;11376;50.932;4.442;2024-03-23T13:39:09;9.93;;;1.60;;
22417;SDS011;11376;50.932;4.442;2024-03-23T13:41:39;7.83;;;1.53;;
22417;SDS011;11376;50.932;4.442;2024-03-23T13:44:13;5.20;;;1.20;;
22417;SDS011;11376;50.932;4.442;2024-03-23T13:46:40;7.53;;;1.33;;
22417;SDS011;11376;50.932;4.442;2024-03-23T13:51:54;5.77;;;1.10;;
22417;SDS011;11376;50.932;4.442;2024-03-23T13:54:23;7.23;;;0.90;;
22417;SDS011;11376;50.932;4.442;2024-03-23T13:56:54;6.87;;;1.20;;
22417;SDS011;11376;50.932;4.442;2024-03-23T13:59:20;7.73;;;1.47;;
22417;SDS011;11376;50.932;4.442;2024-03-23T14:01:48;9.13;;;1.20;;
22417;SDS011;11376;50.932;4.442;2024-03-23T14:04:14;4.67;;;0.93;;
22417;SDS011;11376;50.932;4.442;2024-03-23T14:06:41;7.43;;;1.10;;
22417;SDS011;11376;50.932;4.442;2024-03-23T14:09:10;8.80;;;1.00;;
22417;SDS011;11376;50.932;4.442;2024-03-23T14:11:36;6.07;;;0.90;;
22417;SDS011;11376;50.932;4.442;2024-03-23T14:14:02;5.90;;;0.97;;
22417;SDS011;11376;50.932;4.442;2024-03-23T14:16:31;7.23;;;1.00;;
22417;SDS011;11376;50.932;4.442;2024-03-23T14:18:58;4.10;;;0.83;;
22417;SDS011;11376;50.932;4.442;2024-03-23T14:21:24;5.20;;;0.87;;
22417;SDS011;11376;50.932;4.442;2024-03-23T14:23:50;6.53;;;1.10;;
22417;SDS011;11376;50.932;4.442;2024-03-23T14:26:15;5.50;;;1.50;;
22417;SDS011;11376;50.932;4.442;2024-03-23T14:28:41;7.28;;;1.10;;
22417;SDS011;11376;50.932;4.442;2024-03-23T14:31:07;8.23;;;1.40;;
22417;SDS011;11376;50.932;4.442;2024-03-23T14:33:39;4.95;;;0.95;;
22417;SDS011;11376;50.932;4.442;2024-03-23T14:36:11;8.70;;;1.60;;
22417;SDS011;11376;50.932;4.442;2024-03-23T14:38:38;6.55;;;1.30;;
22417;SDS011;11376;50.932;4.442;2024-03-23T14:41:03;6.18;;;1.30;;
22417;SDS011;11376;50.932;4.442;2024-03-23T14:43:29;4.63;;;1.00;;
22417;SDS011;11376;50.932;4.442;2024-03-23T14:46:09;4.22;;;1.20;;
22417;SDS011;11376;50.932;4.442;2024-03-23T14:48:39;8.82;;;1.50;;
22417;SDS011;11376;50.932;4.442;2024-03-23T14:51:06;7.82;;;1.48;;
22417;SDS011;11376;50.932;4.442;2024-03-23T14:53:38;7.75;;;1.52;;
22417;SDS011;11376;50.932;4.442;2024-03-23T14:56:05;2.67;;;0.88;;
22417;SDS011;11376;50.932;4.442;2024-03-23T14:58:31;4.35;;;0.95;;
22417;SDS011;11376;50.932;4.442;2024-03-23T15:01:03;5.43;;;1.23;;
22417;SDS011;11376;50.932;4.442;2024-03-23T15:03:30;6.53;;;1.13;;
22417;SDS011;11376;50.932;4.442;2024-03-23T15:05:56;4.55;;;1.05;;
22417;SDS011;11376;50.932;4.442;2024-03-23T15:08:23;8.20;;;1.40;;
22417;SDS011;11376;50.932;4.442;2024-03-23T15:10:49;6.35;;;1.10;;
22417;SDS011;11376;50.932;4.442;2024-03-23T15:13:15;4.90;;;0.85;;
22417;SDS011;11376;50.932;4.442;2024-03-23T15:15:41;3.05;;;0.73;;
22417;SDS011;11376;50.932;4.442;2024-03-23T15:18:11;5.68;;;1.00;;
22417;SDS011;11376;50.932;4.442;2024-03-23T15:20:41;6.07;;;0.90;;
22417;SDS011;11376;50.932;4.442;2024-03-23T15:23:07;5.70;;;1.10;;
22417;SDS011;11376;50.932;4.442;2024-03-23T15:25:33;7.60;;;1.40;;
22417;SDS011;11376;50.932;4.442;2024-03-23T15:27:59;7.55;;;1.70;;
22417;SDS011;11376;50.932;4.442;2024-03-23T15:30:25;4.38;;;0.80;;
22417;SDS011;11376;50.932;4.442;2024-03-23T15:32:51;5.75;;;1.20;;
22417;SDS011;11376;50.932;4.442;2024-03-23T15:35:17;5.97;;;1.10;;
22417;SDS011;11376;50.932;4.442;2024-03-23T15:37:46;4.90;;;0.80;;
22417;SDS011;11376;50.932;4.442;2024-03-23T15:40:12;8.90;;;1.20;;
22417;SDS011;11376;50.932;4.442;2024-03-23T15:42:38;6.35;;;1.20;;
22417;SDS011;11376;50.932;4.442;2024-03-23T15:45:05;5.65;;;1.20;;
22417;SDS011;11376;50.932;4.442;2024-03-23T15:47:32;6.57;;;1.03;;
22417;SDS011;11376;50.932;4.442;2024-03-23T15:49:58;7.90;;;1.38;;
22417;SDS011;11376;50.932;4.442;2024-03-23T15:52:24;6.43;;;1.00;;
22417;SDS011;11376;50.932;4.442;2024-03-23T15:54:49;7.87;;;1.60;;
22417;SDS011;11376;50.932;4.442;2024-03-23T15:57:15;6.60;;;1.17;;